Time;durP1;ratioP1;P1;durP2;ratioP2;P2;SDS_P1;SDS_P2;PMS_P1;PMS_P2;Temp;Humidity;BMP_temperature;BMP_pressure;BME280_temperature;BME280_humidity;BME280_pressure;Samples;Min_cycle;Max_cycle;Signal;HPM_P1;HPM_P2
2022/09/09 00:00:12;;;;;;;10.98;9.30;;;12.60;99.90;;;;;;4982475;28;20092;-76
2022/09/09 00:02:42;;;;;;;9.77;8.88;;;12.50;99.90;;;;;;4970201;28;20064;-76
2022/09/09 00:05:30;;;;;;;11.48;9.13;;;12.60;99.90;;;;;;4965750;28;20564;-76
2022/09/09 00:08:03;;;;;;;10.05;9.10;;;12.70;99.90;;;;;;4943064;28;20036;-78
2022/09/09 00:10:41;;;;;;;9.40;8.52;;;12.60;99.90;;;;;;4940979;28;20046;-78
2022/09/09 00:13:24;;;;;;;10.32;9.23;;;12.60;99.90;;;;;;4952475;28;20051;-78
2022/09/09 00:16:08;;;;;;;9.90;8.98;;;12.60;99.90;;;;;;4942274;28;20426;-76
2022/09/09 00:19:01;;;;;;;9.60;8.57;;;12.40;99.90;;;;;;4941969;28;20050;-78
2022/09/09 00:21:35;;;;;;;10.02;8.40;;;12.50;99.90;;;;;;4929865;28;20050;-76
2022/09/09 00:24:16;;;;;;;9.55;8.75;;;12.40;99.90;;;;;;4943120;28;20422;-76
2022/09/09 00:26:48;;;;;;;10.65;9.30;;;12.60;99.90;;;;;;4941726;28;20043;-76
2022/09/09 00:29:42;;;;;;;10.65;9.02;;;12.60;99.90;;;;;;4950443;28;20057;-76
2022/09/09 00:32:14;;;;;;;11.13;10.18;;;12.50;99.90;;;;;;4936538;28;20631;-78
2022/09/09 00:35:15;;;;;;;10.30;9.30;;;12.70;99.90;;;;;;4947992;28;20055;-76
2022/09/09 00:37:44;;;;;;;11.50;9.73;;;12.70;99.90;;;;;;4952029;28;20047;-76
2022/09/09 00:40:31;;;;;;;10.95;10.10;;;12.70;99.90;;;;;;4948561;28;20117;-75
2022/09/09 00:43:07;;;;;;;10.27;9.38;;;12.80;99.90;;;;;;4944794;28;20051;-78
2022/09/09 00:45:53;;;;;;;10.50;8.35;;;12.70;99.90;;;;;;4950111;28;20051;-78
2022/09/09 00:48:24;;;;;;;9.05;8.35;;;12.70;99.90;;;;;;4953064;28;20043;-76
2022/09/09 00:50:59;;;;;;;11.63;8.70;;;12.70;99.90;;;;;;4948155;28;20047;-76
2022/09/09 00:53:45;;;;;;;9.13;8.38;;;12.60;99.90;;;;;;4944880;28;20047;-76
2022/09/09 00:56:21;;;;;;;9.63;8.73;;;12.60;99.90;;;;;;4942310;28;20046;-78
2022/09/09 00:58:58;;;;;;;9.07;8.48;;;12.60;99.90;;;;;;4946454;28;20055;-79
2022/09/09 01:01:24;;;;;;;10.50;9.13;;;12.60;99.90;;;;;;4945827;28;20153;-78
2022/09/09 01:03:59;;;;;;;13.48;9.25;;;12.80;99.90;;;;;;4929618;28;20494;-79
2022/09/09 01:06:34;;;;;;;9.93;9.13;;;12.70;99.90;;;;;;4937451;28;20509;-79
2022/09/09 01:09:32;;;;;;;9.27;8.57;;;12.60;99.90;;;;;;4949996;28;20295;-77
2022/09/09 01:12:18;;;;;;;8.63;8.02;;;12.80;99.90;;;;;;4945256;28;20047;-79
2022/09/09 01:14:54;;;;;;;8.50;7.88;;;12.80;99.90;;;;;;4950071;28;20047;-77
2022/09/09 01:17:30;;;;;;;8.93;8.25;;;12.80;99.90;;;;;;4946460;28;20081;-78
2022/09/09 01:20:26;;;;;;;8.75;7.63;;;12.80;99.90;;;;;;4944729;28;20105;-77
2022/09/09 01:23:27;;;;;;;8.77;7.70;;;12.90;99.90;;;;;;4944492;28;20051;-76
2022/09/09 01:26:35;;;;;;;10.88;7.22;;;13.00;99.90;;;;;;4954531;28;20054;-78
2022/09/09 01:29:09;;;;;;;6.68;6.07;;;12.80;99.90;;;;;;4949193;28;20051;-77
2022/09/09 01:31:59;;;;;;;7.07;6.45;;;12.90;99.90;;;;;;4948080;28;20051;-79
2022/09/09 01:34:36;;;;;;;7.50;6.78;;;12.70;99.90;;;;;;4934091;28;20062;-79
2022/09/09 01:37:07;;;;;;;9.95;7.30;;;12.80;99.90;;;;;;4948573;28;20590;-75
2022/09/09 01:39:35;;;;;;;12.32;6.70;;;12.80;99.90;;;;;;4944547;28;20047;-76
2022/09/09 01:42:11;;;;;;;8.40;6.78;;;13.00;99.90;;;;;;4934868;28;20545;-75
2022/09/09 01:44:38;;;;;;;8.82;7.00;;;12.90;99.90;;;;;;4953548;28;20050;-76
2022/09/09 01:47:05;;;;;;;12.50;7.45;;;13.00;99.90;;;;;;4946313;28;20101;-78
2022/09/09 01:49:34;;;;;;;11.57;6.93;;;13.20;99.90;;;;;;4939580;28;20051;-77
2022/09/09 01:52:08;;;;;;;8.65;7.05;;;13.20;99.90;;;;;;4940983;28;20066;-77
2022/09/09 01:54:37;;;;;;;11.70;6.85;;;13.30;99.90;;;;;;4933992;28;20443;-75
2022/09/09 01:57:23;;;;;;;7.18;6.68;;;13.40;99.90;;;;;;4939747;28;20050;-75
2022/09/09 02:00:06;;;;;;;8.57;7.78;;;13.40;99.90;;;;;;4929466;28;20081;-77
2022/09/09 02:03:02;;;;;;;9.23;8.20;;;13.40;99.90;;;;;;4947553;28;20124;-76
2022/09/09 02:06:38;;;;;;;8.93;7.78;;;13.40;99.90;;;;;;4949586;28;20047;-76
2022/09/09 02:09:24;;;;;;;8.52;7.78;;;13.10;99.90;;;;;;4846994;28;20056;-76
2022/09/09 02:12:11;;;;;;;10.30;8.65;;;13.20;99.90;;;;;;4930147;28;20117;-76
2022/09/09 02:14:57;;;;;;;12.15;9.63;;;13.30;99.90;;;;;;4944301;28;21968;-78
2022/09/09 02:17:31;;;;;;;9.85;9.05;;;13.20;99.90;;;;;;4937707;28;20047;-75
2022/09/09 02:20:08;;;;;;;11.40;10.18;;;13.10;99.90;;;;;;4947952;28;20051;-75
2022/09/09 02:22:47;;;;;;;11.30;10.18;;;13.00;99.90;;;;;;4939845;28;20070;-80
2022/09/09 02:25:19;;;;;;;15.20;10.43;;;13.00;99.90;;;;;;4931802;28;20563;-76
2022/09/09 02:27:51;;;;;;;11.88;10.75;;;12.80;99.90;;;;;;4936227;28;20039;-75
2022/09/09 02:30:20;;;;;;;16.58;10.60;;;12.80;99.90;;;;;;4946375;28;20071;-76
2022/09/09 02:32:56;;;;;;;11.32;10.30;;;12.80;99.90;;;;;;4942884;28;20035;-76
2022/09/09 02:35:37;;;;;;;12.88;10.73;;;13.00;99.90;;;;;;4939233;28;20089;-76
2022/09/09 02:38:07;;;;;;;11.18;10.05;;;13.00;99.90;;;;;;4951167;28;20051;-76
2022/09/09 02:40:38;;;;;;;10.53;9.53;;;12.90;99.90;;;;;;4943951;28;20046;-76
2022/09/09 02:43:06;;;;;;;10.88;9.90;;;12.90;99.90;;;;;;4952436;28;20903;-78
2022/09/09 02:45:57;;;;;;;10.43;9.52;;;12.90;99.90;;;;;;4944000;28;20055;-77
2022/09/09 02:48:34;;;;;;;9.95;8.48;;;13.00;99.90;;;;;;4946521;28;20134;-78
2022/09/09 02:51:20;;;;;;;14.50;8.90;;;13.00;99.90;;;;;;4942905;28;20721;-76
2022/09/09 02:54:05;;;;;;;;;;;13.00;99.90;;;;;;4939377;28;20047;-76
2022/09/09 02:56:39;;;;;;;11.02;8.38;;;13.10;99.90;;;;;;4949971;28;19958;-76
2022/09/09 02:59:07;;;;;;;9.70;8.90;;;13.00;99.90;;;;;;4932980;28;20047;-76
2022/09/09 03:01:35;;;;;;;10.73;9.10;;;13.10;99.90;;;;;;4944807;28;20066;-78
2022/09/09 03:04:05;;;;;;;9.13;8.35;;;13.20;99.90;;;;;;4942959;28;20055;-76
2022/09/09 03:06:32;;;;;;;9.20;8.50;;;13.30;99.90;;;;;;4936108;28;20101;-75
2022/09/09 03:09:10;;;;;;;9.23;8.38;;;13.30;99.90;;;;;;4945766;28;20055;-77
2022/09/09 03:11:38;;;;;;;9.07;8.48;;;13.30;99.90;;;;;;4946386;28;20051;-76
2022/09/09 03:14:06;;;;;;;11.07;8.80;;;13.30;99.90;;;;;;4942218;28;20477;-77
2022/09/09 03:16:34;;;;;;;9.73;8.93;;;13.30;99.90;;;;;;4945183;28;20039;-75
2022/09/09 03:19:03;;;;;;;9.75;8.95;;;13.40;99.90;;;;;;4944996;28;20062;-76
2022/09/09 03:21:30;;;;;;;11.65;9.45;;;13.50;99.90;;;;;;4942797;28;20052;-74
2022/09/09 03:23:58;;;;;;;10.20;9.48;;;13.60;99.90;;;;;;4944513;28;20134;-77
2022/09/09 03:26:24;;;;;;;10.52;9.60;;;13.40;99.90;;;;;;4941084;28;20053;-78
2022/09/09 03:28:51;;;;;;;10.48;9.48;;;13.40;99.90;;;;;;4946258;28;20130;-76
2022/09/09 03:31:21;;;;;;;11.85;9.40;;;13.50;99.90;;;;;;4946292;28;20039;-79
2022/09/09 03:33:47;;;;;;;9.82;8.90;;;13.60;99.90;;;;;;4931119;28;20502;-76
2022/09/09 03:36:16;;;;;;;9.60;8.38;;;13.50;99.90;;;;;;4943718;28;20051;-76
2022/09/09 03:38:43;;;;;;;10.90;9.02;;;13.50;99.90;;;;;;4944225;28;20545;-76
2022/09/09 03:41:12;;;;;;;10.50;8.68;;;13.60;99.90;;;;;;4951840;28;20082;-77
2022/09/09 03:43:39;;;;;;;10.13;9.10;;;13.60;99.90;;;;;;4926712;28;20053;-76
2022/09/09 03:46:06;;;;;;;13.25;8.50;;;13.60;99.90;;;;;;4944743;28;20445;-77
2022/09/09 03:48:33;;;;;;;9.70;8.15;;;13.60;99.90;;;;;;4921008;28;20048;-75
2022/09/09 03:51:01;;;;;;;8.27;7.57;;;13.60;99.90;;;;;;4947006;28;20047;-76
2022/09/09 03:53:29;;;;;;;10.82;8.57;;;13.60;99.90;;;;;;4935831;28;20051;-77
2022/09/09 03:55:59;;;;;;;10.10;9.10;;;13.60;99.90;;;;;;4939152;28;20051;-77
2022/09/09 03:58:27;;;;;;;9.55;8.60;;;13.60;99.90;;;;;;4954689;28;20054;-77
2022/09/09 04:01:00;;;;;;;13.18;9.48;;;13.60;99.90;;;;;;4949690;28;20342;-77
2022/09/09 04:03:27;;;;;;;9.48;8.75;;;13.60;99.90;;;;;;4941671;28;20051;-77
2022/09/09 04:05:56;;;;;;;10.10;9.40;;;13.60;99.90;;;;;;4931379;28;20042;-76
2022/09/09 04:08:26;;;;;;;10.95;10.15;;;13.70;99.90;;;;;;4945970;28;20039;-77
2022/09/09 04:10:56;;;;;;;10.88;9.98;;;13.60;99.90;;;;;;4942596;28;20047;-76
2022/09/09 04:13:25;;;;;;;11.27;10.20;;;13.60;99.90;;;;;;4950380;28;20127;-77
2022/09/09 04:15:59;;;;;;;9.90;9.20;;;13.60;99.90;;;;;;4946741;28;20285;-75
2022/09/09 04:18:30;;;;;;;10.63;9.55;;;13.60;99.90;;;;;;4948339;28;20054;-75
2022/09/09 04:20:58;;;;;;;12.07;8.70;;;13.50;99.90;;;;;;4943824;28;20067;-77
2022/09/09 04:23:29;;;;;;;9.73;8.80;;;13.50;99.90;;;;;;4939929;28;20048;-78
2022/09/09 04:25:58;;;;;;;9.48;8.43;;;13.50;99.90;;;;;;4945012;28;20057;-77
2022/09/09 04:28:28;;;;;;;10.55;8.13;;;13.50;99.90;;;;;;4940632;28;20050;-77
2022/09/09 04:30:56;;;;;;;10.45;9.40;;;13.40;99.90;;;;;;4947845;28;20656;-77
2022/09/09 04:33:26;;;;;;;9.25;8.32;;;13.40;99.90;;;;;;4935427;28;20484;-77
2022/09/09 04:35:53;;;;;;;11.88;9.38;;;13.40;99.90;;;;;;4942151;28;20074;-78
2022/09/09 04:38:22;;;;;;;10.15;9.18;;;13.40;99.90;;;;;;4928299;28;20050;-77
2022/09/09 04:40:51;;;;;;;9.68;8.77;;;13.40;99.90;;;;;;4944515;28;20043;-77
2022/09/09 04:43:22;;;;;;;10.95;9.90;;;13.40;99.90;;;;;;4951047;28;20533;-78
2022/09/09 04:45:51;;;;;;;17.95;10.32;;;13.40;99.90;;;;;;4948354;28;20044;-77
2022/09/09 04:48:21;;;;;;;9.80;8.93;;;13.50;99.90;;;;;;4941958;28;20035;-77
2022/09/09 04:51:04;;;;;;;10.68;9.00;;;13.60;99.90;;;;;;4946869;28;20122;-78
2022/09/09 04:53:34;;;;;;;12.18;9.48;;;13.60;99.90;;;;;;4940521;28;20051;-78
2022/09/09 04:56:12;;;;;;;14.73;9.73;;;13.60;99.90;;;;;;4933726;28;20058;-78
2022/09/09 04:58:44;;;;;;;10.23;8.43;;;13.60;99.90;;;;;;4930635;28;20199;-77
2022/09/09 05:01:14;;;;;;;11.95;9.13;;;13.60;99.90;;;;;;4933465;28;20127;-78
2022/09/09 05:03:45;;;;;;;12.07;9.27;;;13.60;99.90;;;;;;4947107;28;20074;-76
2022/09/09 05:06:17;;;;;;;9.30;8.40;;;13.60;99.90;;;;;;4925192;28;20633;-77
2022/09/09 05:08:47;;;;;;;11.60;8.38;;;13.60;99.90;;;;;;4933383;28;20044;-75
2022/09/09 05:11:26;;;;;;;10.20;9.27;;;13.50;99.90;;;;;;4935240;28;20652;-79
2022/09/09 05:13:58;;;;;;;9.52;8.80;;;13.50;99.90;;;;;;4947719;28;20055;-78
2022/09/09 05:16:25;;;;;;;11.07;9.15;;;13.40;99.90;;;;;;4954553;28;20056;-78
2022/09/09 05:18:52;;;;;;;9.80;8.48;;;13.40;99.90;;;;;;4942004;28;20055;-78
2022/09/09 05:21:21;;;;;;;13.73;9.45;;;13.30;99.90;;;;;;4938033;28;20075;-76
2022/09/09 05:23:47;;;;;;;12.90;8.45;;;13.30;99.90;;;;;;4925586;28;20050;-76
2022/09/09 05:26:17;;;;;;;10.55;8.50;;;13.30;99.90;;;;;;4932686;28;20142;-76
2022/09/09 05:28:47;;;;;;;13.38;8.70;;;13.30;99.90;;;;;;4938617;28;20100;-79
2022/09/09 05:31:16;;;;;;;11.07;9.13;;;13.30;99.90;;;;;;4942657;28;20061;-79
2022/09/09 05:33:45;;;;;;;11.85;9.07;;;13.30;99.90;;;;;;4946292;28;20051;-78
2022/09/09 05:36:16;;;;;;;13.48;8.98;;;13.30;99.90;;;;;;4945266;28;20071;-77
2022/09/09 05:38:45;;;;;;;10.25;9.02;;;13.30;99.90;;;;;;4950131;28;20085;-76
2022/09/09 05:41:17;;;;;;;11.10;10.00;;;13.30;99.90;;;;;;4939862;28;20536;-77
2022/09/09 05:43:46;;;;;;;12.43;9.35;;;13.20;99.90;;;;;;4938337;28;20142;-76
2022/09/09 05:46:15;;;;;;;11.07;9.98;;;13.30;99.90;;;;;;4952112;28;20043;-75
2022/09/09 05:48:46;;;;;;;11.15;10.07;;;13.30;99.90;;;;;;4918019;28;20082;-78
2022/09/09 05:51:15;;;;;;;14.07;10.30;;;13.30;99.90;;;;;;4944127;28;20107;-79
2022/09/09 05:53:44;;;;;;;13.75;10.45;;;13.30;99.90;;;;;;4937223;28;20043;-79
2022/09/09 05:56:14;;;;;;;13.25;9.90;;;13.40;99.90;;;;;;4940280;28;20517;-78
2022/09/09 05:58:46;;;;;;;10.52;9.63;;;13.30;99.90;;;;;;4934218;28;20485;-78
2022/09/09 06:01:16;;;;;;;10.52;9.70;;;13.40;99.90;;;;;;4936940;28;20040;-79
2022/09/09 06:03:44;;;;;;;10.18;9.10;;;13.40;99.90;;;;;;4952738;28;20043;-79
2022/09/09 06:06:17;;;;;;;16.33;9.27;;;13.40;99.90;;;;;;4939774;28;20051;-80
2022/09/09 06:08:45;;;;;;;9.77;8.98;;;13.50;99.90;;;;;;4925551;28;20189;-78
2022/09/09 06:11:20;;;;;;;10.48;9.38;;;13.60;99.90;;;;;;4940350;28;20098;-79
2022/09/09 06:13:50;;;;;;;16.20;9.80;;;13.60;99.90;;;;;;4940385;28;20051;-80
2022/09/09 06:16:19;;;;;;;10.57;9.85;;;13.70;99.90;;;;;;4946731;28;20043;-79
2022/09/09 06:18:48;;;;;;;11.73;10.68;;;13.90;99.90;;;;;;4926751;28;20100;-79
2022/09/09 06:21:16;;;;;;;11.90;10.80;;;13.90;99.90;;;;;;4950539;28;20592;-80
2022/09/09 06:23:44;;;;;;;11.85;11.10;;;14.00;99.90;;;;;;4937988;28;20490;-80
2022/09/09 06:26:12;;;;;;;12.20;11.40;;;14.00;99.90;;;;;;4960688;28;20101;-77
2022/09/09 06:28:39;;;;;;;13.98;12.52;;;14.20;99.90;;;;;;4949104;28;20051;-77
2022/09/09 06:31:08;;;;;;;13.88;12.52;;;14.30;99.90;;;;;;4948089;28;20110;-77
2022/09/09 06:33:39;;;;;;;12.13;11.32;;;14.50;99.90;;;;;;4943546;28;20057;-80
2022/09/09 06:36:10;;;;;;;12.57;11.77;;;14.70;99.90;;;;;;4950259;28;20045;-79
2022/09/09 06:38:37;;;;;;;14.35;13.18;;;14.80;99.90;;;;;;4942211;28;20158;-80
2022/09/09 06:41:05;;;;;;;14.50;12.95;;;14.90;99.90;;;;;;4926642;28;20725;-76
2022/09/09 06:43:32;;;;;;;13.93;12.82;;;15.00;99.90;;;;;;4931995;28;20139;-77
2022/09/09 06:46:04;;;;;;;14.68;13.13;;;15.10;99.90;;;;;;4925021;28;20115;-78
2022/09/09 06:48:32;;;;;;;14.18;13.13;;;15.20;99.90;;;;;;4951260;28;20116;-76
2022/09/09 06:51:23;;;;;;;13.40;12.48;;;15.30;99.90;;;;;;4946095;28;20101;-78
2022/09/09 06:53:51;;;;;;;14.02;12.50;;;15.40;99.90;;;;;;4926857;28;20047;-78
2022/09/09 06:56:21;;;;;;;14.18;13.05;;;15.40;99.90;;;;;;4937751;28;20055;-77
2022/09/09 06:58:51;;;;;;;14.05;13.00;;;15.40;99.90;;;;;;4947525;28;20039;-77
2022/09/09 07:01:30;;;;;;;13.95;12.82;;;15.50;99.90;;;;;;4946832;28;20078;-78
2022/09/09 07:04:00;;;;;;;15.18;13.93;;;15.50;99.90;;;;;;4960759;22;20055;-72
2022/09/09 07:06:34;;;;;;;14.48;13.43;;;15.40;99.90;;;;;;4966014;28;20418;-73
2022/09/09 07:09:12;;;;;;;;;;;15.50;99.90;;;;;;4981715;28;20049;-73
2022/09/09 07:11:51;;;;;;;13.90;12.75;;;15.50;99.90;;;;;;5014647;28;19921;-73
2022/09/09 07:14:19;;;;;;;17.10;14.02;;;15.40;99.90;;;;;;5004853;28;20520;-73
2022/09/09 07:16:49;;;;;;;14.68;13.68;;;15.50;99.90;;;;;;4981888;28;20331;-73
2022/09/09 07:19:16;;;;;;;14.15;13.25;;;15.50;99.90;;;;;;4998888;28;20051;-73
2022/09/09 07:21:45;;;;;;;14.82;13.50;;;15.40;99.90;;;;;;4984925;22;20429;-76
2022/09/09 07:24:15;;;;;;;15.65;14.10;;;15.50;99.90;;;;;;5035537;28;20046;-77
2022/09/09 07:26:43;;;;;;;15.50;14.30;;;15.60;99.90;;;;;;5050871;28;20119;-76
2022/09/09 07:29:13;;;;;;;17.42;15.60;;;15.70;99.90;;;;;;5037066;28;20407;-76
2022/09/09 07:31:46;;;;;;;;;;;15.80;99.90;;;;;;5023983;28;20043;-78
2022/09/09 07:34:18;;;;;;;14.88;13.98;;;15.80;99.90;;;;;;5035943;28;19920;-77
2022/09/09 07:36:46;;;;;;;14.50;13.50;;;16.00;99.90;;;;;;5034283;28;20095;-79
2022/09/09 07:39:14;;;;;;;16.83;15.82;;;16.30;99.90;;;;;;5032317;28;20088;-77
2022/09/09 07:41:47;;;;;;;17.67;16.42;;;16.50;99.90;;;;;;5028398;28;20037;-78
2022/09/09 07:44:22;;;;;;;18.13;16.88;;;16.60;99.90;;;;;;5026518;28;20055;-76
2022/09/09 07:46:55;;;;;;;18.13;16.67;;;16.60;99.90;;;;;;5026630;28;20037;-77
2022/09/09 07:49:28;;;;;;;18.25;16.92;;;16.50;99.90;;;;;;5029219;28;20140;-77
2022/09/09 07:52:00;;;;;;;18.27;16.77;;;16.50;99.90;;;;;;5034897;28;20037;-77
2022/09/09 07:54:27;;;;;;;18.20;16.55;;;16.50;99.90;;;;;;5024930;28;20041;-78
2022/09/09 07:56:54;;;;;;;18.80;17.45;;;16.80;99.90;;;;;;5033055;28;20037;-79
2022/09/09 07:59:24;;;;;;;18.20;17.10;;;17.30;99.90;;;;;;5012982;28;20068;-77
2022/09/09 08:01:54;;;;;;;19.95;18.50;;;17.90;99.90;;;;;;5033893;28;20037;-75
2022/09/09 08:04:26;;;;;;;20.65;18.88;;;18.30;99.90;;;;;;5029116;28;20042;-77
2022/09/09 08:06:57;;;;;;;21.20;19.52;;;18.20;99.90;;;;;;5036597;28;20041;-77
2022/09/09 08:09:28;;;;;;;20.83;19.20;;;18.10;99.90;;;;;;5009743;28;20038;-76
2022/09/09 08:12:02;;;;;;;21.30;19.73;;;18.10;99.90;;;;;;5025261;28;20064;-77
2022/09/09 08:14:29;;;;;;;21.02;19.48;;;18.00;99.90;;;;;;5026522;28;20037;-75
2022/09/09 08:16:57;;;;;;;19.58;18.27;;;17.80;99.90;;;;;;5020981;28;20056;-77
2022/09/09 08:19:29;;;;;;;20.02;18.50;;;17.80;99.90;;;;;;5027211;28;20044;-78
2022/09/09 08:21:57;;;;;;;18.80;17.50;;;17.50;99.90;;;;;;5015687;28;20132;-76
2022/09/09 08:24:23;;;;;;;19.67;17.80;;;17.40;99.90;;;;;;5026894;28;20555;-79
2022/09/09 08:26:51;;;;;;;18.58;17.30;;;17.30;99.90;;;;;;5009442;28;20084;-77
2022/09/09 08:29:21;;;;;;;19.42;17.88;;;17.30;99.90;;;;;;5034959;28;20119;-77
2022/09/09 08:31:52;;;;;;;19.40;17.70;;;17.40;99.90;;;;;;5013122;28;20496;-75
2022/09/09 08:34:20;;;;;;;19.50;17.70;;;17.40;99.90;;;;;;5008337;28;20128;-77
2022/09/09 08:36:49;;;;;;;18.35;17.20;;;17.40;99.90;;;;;;5020177;28;20049;-75
2022/09/09 08:39:20;;;;;;;18.70;17.40;;;17.60;99.90;;;;;;5030933;28;20041;-77
2022/09/09 08:42:19;;;;;;;19.73;18.38;;;17.80;99.90;;;;;;5049908;28;20048;-75
2022/09/09 08:45:30;;;;;;;20.90;19.50;;;18.00;99.90;;;;;;5036866;28;20045;-78
2022/09/09 08:48:04;;;;;;;19.42;18.17;;;18.20;99.90;;;;;;5022416;28;20045;-77
2022/09/09 08:50:38;;;;;;;20.42;19.10;;;18.30;99.90;;;;;;5025941;28;20496;-77
2022/09/09 08:53:22;;;;;;;19.95;18.55;;;18.40;99.90;;;;;;5026489;28;20256;-77
2022/09/09 08:55:55;;;;;;;20.50;19.10;;;18.50;99.90;;;;;;5012950;28;20102;-77
2022/09/09 08:58:32;;;;;;;21.65;20.23;;;18.70;99.90;;;;;;5026592;28;20051;-77
2022/09/09 09:01:08;;;;;;;22.52;20.75;;;19.10;99.90;;;;;;5034469;28;20041;-77
2022/09/09 09:04:00;;;;;;;23.27;21.67;;;19.30;99.90;;;;;;5032092;28;20051;-77
2022/09/09 09:06:35;;;;;;;22.33;20.85;;;19.50;99.90;;;;;;5012857;28;20042;-78
2022/09/09 09:09:28;;;;;;;22.30;20.70;;;19.90;99.90;;;;;;5023399;28;20200;-76
2022/09/09 09:12:00;;;;;;;23.15;21.60;;;19.90;99.90;;;;;;5036337;28;20095;-78
2022/09/09 09:14:35;;;;;;;22.80;21.30;;;19.80;99.90;;;;;;5034524;28;20773;-78
2022/09/09 09:17:23;;;;;;;21.80;20.40;;;20.20;99.90;;;;;;5033365;28;20049;-78
2022/09/09 09:19:50;;;;;;;23.08;21.50;;;20.50;99.90;;;;;;5017812;28;20075;-76
2022/09/09 09:22:21;;;;;;;23.52;21.98;;;20.50;99.90;;;;;;5010955;28;20111;-78
2022/09/09 09:25:00;;;;;;;23.00;21.45;;;20.20;99.90;;;;;;5033024;28;20047;-77
2022/09/09 09:27:36;;;;;;;23.58;21.95;;;19.80;99.90;;;;;;5030844;28;20435;-77
2022/09/09 09:30:20;;;;;;;23.77;21.80;;;19.40;99.90;;;;;;5028449;28;20293;-77
2022/09/09 09:33:10;;;;;;;24.33;22.45;;;19.30;99.90;;;;;;5030264;28;20040;-77
2022/09/09 09:35:37;;;;;;;22.88;21.48;;;19.00;99.90;;;;;;5036008;28;20216;-77
2022/09/09 09:38:17;;;;;;;23.48;21.75;;;18.70;99.90;;;;;;5026513;28;20049;-76
2022/09/09 09:41:04;;;;;;;23.90;21.80;;;18.60;99.90;;;;;;5015840;28;20056;-77
2022/09/09 09:43:36;;;;;;;21.15;19.75;;;18.80;99.90;;;;;;5024131;28;20049;-76
2022/09/09 09:46:23;;;;;;;22.30;20.83;;;19.20;99.90;;;;;;5033132;28;20059;-77
2022/09/09 09:49:01;;;;;;;22.15;20.67;;;19.50;99.90;;;;;;5028228;28;20128;-76
2022/09/09 09:51:30;;;;;;;22.02;20.40;;;19.80;99.90;;;;;;5028285;28;20141;-79
2022/09/09 09:54:25;;;;;;;22.83;21.10;;;20.10;99.90;;;;;;5027040;28;20488;-76
2022/09/09 09:56:56;;;;;;;22.63;21.02;;;20.10;99.90;;;;;;5028923;28;20044;-76
2022/09/09 09:59:27;;;;;;;22.75;21.05;;;20.00;99.90;;;;;;5009247;28;20068;-79
2022/09/09 10:02:27;;;;;;;21.98;20.58;;;20.00;99.90;;;;;;5017315;28;20057;-77
2022/09/09 10:05:23;;;;;;;22.83;21.35;;;20.10;99.90;;;;;;5032942;28;21038;-76
2022/09/09 10:08:10;;;;;;;22.20;20.70;;;20.10;99.90;;;;;;5023255;28;20041;-76
2022/09/09 10:10:52;;;;;;;23.52;21.73;;;20.10;99.90;;;;;;5034723;28;20119;-77
2022/09/09 10:13:46;;;;;;;23.60;21.77;;;19.80;99.90;;;;;;5036502;28;20504;-77
2022/09/09 10:16:45;;;;;;;22.05;20.55;;;19.50;99.90;;;;;;5025185;28;20254;-75
2022/09/09 10:19:32;;;;;;;23.42;21.80;;;19.50;99.90;;;;;;5027570;28;20405;-75
2022/09/09 10:22:19;;;;;;;22.23;20.83;;;19.60;99.90;;;;;;5033249;28;20044;-75
2022/09/09 10:25:01;;;;;;;21.88;20.52;;;19.90;99.90;;;;;;5034297;28;20045;-75
2022/09/09 10:27:31;;;;;;;22.20;20.58;;;20.20;99.90;;;;;;5027698;28;20049;-75
2022/09/09 10:30:14;;;;;;;22.52;20.77;;;19.80;99.90;;;;;;5034081;28;20036;-75
2022/09/09 10:32:45;;;;;;;22.27;20.90;;;19.80;99.90;;;;;;5026319;28;20049;-75
2022/09/09 10:35:23;;;;;;;22.08;20.58;;;19.40;99.90;;;;;;5026307;28;20046;-75
2022/09/09 10:38:14;;;;;;;22.98;21.38;;;19.30;99.90;;;;;;5029194;28;20055;-75
2022/09/09 10:41:07;;;;;;;22.33;20.75;;;19.40;99.90;;;;;;5030625;28;20303;-76
2022/09/09 10:44:04;;;;;;;24.08;22.52;;;19.60;99.90;;;;;;5026558;28;20045;-75
2022/09/09 10:46:40;;;;;;;23.15;21.55;;;20.00;99.90;;;;;;4986293;28;20042;-75
2022/09/09 10:49:34;;;;;;;22.38;20.65;;;20.50;99.90;;;;;;5025660;28;20448;-76
2022/09/09 10:52:38;;;;;;;22.60;20.85;;;21.10;99.90;;;;;;5020881;28;20037;-75
2022/09/09 10:55:26;;;;;;;22.90;21.20;;;21.50;99.90;;;;;;5025307;28;20053;-76
2022/09/09 10:57:59;;;;;;;21.75;20.33;;;21.20;99.90;;;;;;5026288;28;20334;-75
2022/09/09 11:00:45;;;;;;;22.02;20.45;;;21.10;99.90;;;;;;5025652;28;20663;-75
2022/09/09 11:03:22;;;;;;;23.73;22.02;;;20.90;99.90;;;;;;5023912;28;20045;-75
2022/09/09 11:05:56;;;;;;;23.80;22.30;;;20.70;99.90;;;;;;5023291;28;20053;-76
2022/09/09 11:08:30;;;;;;;23.98;22.30;;;21.00;99.90;;;;;;5031245;28;20573;-74
2022/09/09 11:11:03;;;;;;;23.67;21.85;;;21.60;99.90;;;;;;5025935;28;20072;-75
2022/09/09 11:13:37;;;;;;;23.90;22.20;;;22.10;99.90;;;;;;5006932;28;20045;-74
2022/09/09 11:16:31;;;;;;;24.20;22.40;;;22.40;99.90;;;;;;5030929;28;20249;-75
2022/09/09 11:19:11;;;;;;;23.70;22.10;;;22.50;99.90;;;;;;5031368;28;20045;-74
2022/09/09 11:21:45;;;;;;;23.88;22.23;;;22.80;99.90;;;;;;5019818;28;20041;-75
2022/09/09 11:24:29;;;;;;;21.73;20.23;;;22.60;99.90;;;;;;5028881;28;20064;-75
2022/09/09 11:27:05;;;;;;;23.48;21.75;;;22.40;99.90;;;;;;5028562;28;20041;-76
2022/09/09 11:30:11;;;;;;;23.02;21.33;;;22.00;99.90;;;;;;5035177;28;20127;-76
2022/09/09 11:33:09;;;;;;;23.17;21.75;;;21.70;99.90;;;;;;5024622;28;20045;-75
2022/09/09 11:35:57;;;;;;;22.80;20.92;;;21.80;99.90;;;;;;5026136;28;20508;-77
2022/09/09 11:38:47;;;;;;;24.33;22.73;;;21.70;99.90;;;;;;5022576;28;20041;-74
2022/09/09 11:41:15;;;;;;;23.95;22.38;;;21.30;99.90;;;;;;5023534;28;20064;-74
2022/09/09 11:43:52;;;;;;;21.60;20.23;;;21.60;99.90;;;;;;5021866;28;20518;-75
2022/09/09 11:46:41;;;;;;;24.63;22.90;;;21.90;99.90;;;;;;5027032;28;20037;-74
2022/09/09 11:49:45;;;;;;;22.95;21.55;;;22.00;99.90;;;;;;5024535;28;20041;-75
2022/09/09 11:52:26;;;;;;;22.92;21.52;;;22.40;99.90;;;;;;5048827;28;20056;-76
2022/09/09 11:54:56;;;;;;;22.40;20.90;;;22.40;99.90;;;;;;5031732;28;20055;-76
2022/09/09 11:57:30;;;;;;;24.10;22.40;;;22.00;99.90;;;;;;5029983;28;20136;-75
2022/09/09 11:59:57;;;;;;;25.75;23.85;;;21.70;99.90;;;;;;5028503;28;20216;-75
2022/09/09 12:02:27;;;;;;;25.38;23.48;;;21.30;99.90;;;;;;5031796;28;20076;-75
2022/09/09 12:05:09;;;;;;;23.77;22.17;;;21.40;99.90;;;;;;5030960;28;20049;-75
2022/09/09 12:07:42;;;;;;;25.23;23.05;;;21.70;99.90;;;;;;5046688;28;20516;-75
2022/09/09 12:10:31;;;;;;;24.00;22.40;;;21.90;99.90;;;;;;5044842;28;20128;-74
2022/09/09 12:13:19;;;;;;;23.77;22.10;;;22.00;99.90;;;;;;5029320;28;20131;-76
2022/09/09 12:15:51;;;;;;;23.48;21.85;;;22.10;99.90;;;;;;5053213;28;20137;-76
2022/09/09 12:18:39;;;;;;;24.50;22.80;;;21.80;99.90;;;;;;5046035;28;20375;-77
2022/09/09 12:21:06;;;;;;;23.67;21.80;;;21.50;99.90;;;;;;5032081;28;20683;-77
2022/09/09 12:23:48;;;;;;;25.45;23.65;;;21.40;99.90;;;;;;5034673;28;20053;-77
2022/09/09 12:26:46;;;;;;;24.13;22.15;;;21.40;99.90;;;;;;5050211;28;20302;-77
2022/09/09 12:29:19;;;;;;;24.33;22.67;;;21.40;99.90;;;;;;5035978;28;20041;-76
2022/09/09 12:32:10;;;;;;;23.35;21.60;;;21.60;99.90;;;;;;5054920;28;20052;-75
2022/09/09 12:35:12;;;;;;;22.95;21.27;;;21.50;99.90;;;;;;5055789;28;20480;-76
2022/09/09 12:37:53;;;;;;;23.52;22.00;;;21.40;99.90;;;;;;5031931;28;20037;-76
2022/09/09 12:40:28;;;;;;;23.42;21.92;;;21.60;99.90;;;;;;5031845;28;20041;-75
2022/09/09 12:42:55;;;;;;;22.52;21.02;;;22.10;99.90;;;;;;5015876;28;20094;-75
2022/09/09 12:45:25;;;;;;;23.63;21.90;;;22.20;99.90;;;;;;5044384;28;20025;-75
2022/09/09 12:47:55;;;;;;;23.52;21.83;;;22.00;99.90;;;;;;5033825;28;20032;-76
2022/09/09 12:50:26;;;;;;;22.90;21.27;;;21.70;99.90;;;;;;5037014;28;20195;-76
2022/09/09 12:52:56;;;;;;;22.45;21.05;;;21.50;99.90;;;;;;5039409;28;20036;-78
2022/09/09 12:55:30;;;;;;;24.17;22.58;;;21.40;99.90;;;;;;5051743;28;20052;-76
2022/09/09 12:57:59;;;;;;;24.35;22.55;;;21.20;99.90;;;;;;5058143;28;20040;-76
2022/09/09 13:00:26;;;;;;;25.23;23.40;;;21.00;99.90;;;;;;5038250;28;20053;-76
2022/09/09 13:03:02;;;;;;;24.42;22.63;;;20.90;99.90;;;;;;5045591;28;20043;-76
2022/09/09 13:05:36;;;;;;;25.77;23.48;;;20.80;99.90;;;;;;5011595;28;20307;-77
2022/09/09 13:08:10;;;;;;;26.55;24.45;;;20.50;99.90;;;;;;5034190;28;20432;-76
2022/09/09 13:10:43;;;;;;;25.70;23.92;;;20.20;99.90;;;;;;5026928;28;20099;-74
2022/09/09 13:13:29;;;;;;;25.17;23.45;;;20.20;99.90;;;;;;5058782;28;20444;-74
2022/09/09 13:15:58;;;;;;;23.63;22.13;;;20.40;99.90;;;;;;5037995;28;20292;-74